| time (UTC) | temp F | wind direction | speed MPH | gust MPH | rain 1hr in | rain 24hr in | rain mn in | humidity % | barometer mb |
| 20260902031514 | 84 | 150 | 0.0 | 2.0 | 0.00 | 0.00 | 0.00 | 60 | 1008.6 |
| 20260902030010 | 84 | 150 | 0.0 | 2.0 | 0.00 | 0.00 | 0.00 | 61 | 1008.4 |
| 20260902024510 | 84 | 150 | 0.0 | 2.0 | 0.00 | 0.00 | 0.00 | 60 | 1008.3 |
| 20260902023009 | 83 | 150 | 0.0 | 4.0 | 0.00 | 0.00 | 0.00 | 62 | 1008.1 |
| 20260902021509 | 83 | 150 | 0.0 | 0.0 | 0.00 | 0.00 | 0.00 | 65 | 1008.1 |
| 20260902020009 | 83 | 150 | 0.0 | 0.0 | 0.00 | 0.00 | 0.00 | 67 | 1008.1 |
| 20260902014508 | 83 | 150 | 0.0 | 0.0 | 0.00 | 0.00 | 0.00 | 67 | 1007.9 |
| 20260902013008 | 84 | 150 | 0.0 | 0.0 | 0.00 | 0.00 | 0.00 | 66 | 1007.7 |
| 20260902011511 | 85 | 150 | 0.0 | 0.0 | 0.00 | 0.00 | 0.00 | 66 | 1007.7 |
| 20260902010016 | 87 | 150 | 0.0 | 2.0 | 0.00 | 0.00 | 0.00 | 64 | 1007.6 |
| 20260902004506 | 89 | 151 | 0.0 | 2.0 | 0.00 | 0.00 | 0.00 | 61 | 1007.8 |
| 20260902003006 | 91 | 151 | 0.0 | 2.0 | 0.00 | 0.00 | 0.00 | 56 | 1007.8 |
| 20260902001504 | 94 | 151 | 0.0 | 1.0 | 0.00 | 0.00 | 0.00 | 52 | 1007.9 |
| 20260902000008 | 96 | 151 | 0.0 | 0.0 | 0.00 | 0.00 | 0.00 | 48 | 1007.9 |
| 20260901234501 | 97 | 151 | 0.0 | 3.0 | 0.00 | 0.00 | 0.00 | 45 | 1008.0 |
| 20260901233001 | 98 | 149 | 0.0 | 4.0 | 0.00 | 0.00 | 0.00 | 42 | 1008.1 |
| 20260901231501 | 98 | 147 | 0.0 | 4.0 | 0.00 | 0.00 | 0.00 | 41 | 1008.0 |
| 20260901230001 | 99 | 147 | 1.0 | 5.0 | 0.00 | 0.00 | 0.00 | 39 | 1008.0 |
| 20260901224603 | 99 | 167 | 1.0 | 9.0 | 0.00 | 0.00 | 0.00 | 38 | 1008.0 |
| 20260901223100 | 99 | 215 | 0.0 | 8.0 | 0.00 | 0.00 | 0.00 | 38 | 1008.2 |
| 20260901221559 | 99 | 89 | 1.0 | 8.0 | 0.00 | 0.00 | 0.00 | 37 | 1008.1 |
| 20260901220116 | 99 | 106 | 3.0 | 8.0 | 0.00 | 0.00 | 0.00 | 38 | 1008.0 |
| 20260901214557 | 99 | 191 | 3.0 | 7.0 | 0.00 | 0.00 | 0.00 | 37 | 1008.2 |
| 20260901213058 | 99 | 133 | 3.0 | 9.0 | 0.00 | 0.00 | 0.00 | 37 | 1008.3 |
| 20260901211556 | 100 | 222 | 3.0 | 10.0 | 0.00 | 0.00 | 0.00 | 36 | 1008.5 |
| 20260901210054 | 100 | 201 | 3.0 | 8.0 | 0.00 | 0.00 | 0.00 | 35 | 1008.5 |
| 20260901204551 | 100 | 108 | 1.0 | 8.0 | 0.00 | 0.00 | 0.00 | 38 | 1008.6 |
| 20260901203050 | 99 | 154 | 3.0 | 10.0 | 0.00 | 0.00 | 0.00 | 38 | 1008.9 |
| 20260901201549 | 99 | 127 | 4.0 | 8.0 | 0.00 | 0.00 | 0.00 | 39 | 1009.0 |
| 20260901200050 | 99 | 149 | 3.0 | 8.0 | 0.00 | 0.00 | 0.00 | 40 | 1009.1 |
| 20260901194553 | 99 | 243 | 2.0 | 8.0 | 0.00 | 0.00 | 0.00 | 39 | 1009.3 |
| 20260901193047 | 99 | 102 | 2.0 | 10.0 | 0.00 | 0.00 | 0.00 | 41 | 1009.4 |
| 20260901191541 | 98 | 208 | 2.0 | 9.0 | 0.00 | 0.00 | 0.00 | 41 | 1009.6 |
| 20260901190039 | 98 | 236 | 1.0 | 11.0 | 0.00 | 0.00 | 0.00 | 42 | 1009.6 |
| 20260901184537 | 98 | 205 | 3.0 | 9.0 | 0.00 | 0.00 | 0.00 | 43 | 1009.8 |
| 20260901183034 | 97 | 229 | 3.0 | 8.0 | 0.00 | 0.00 | 0.00 | 44 | 1010.0 |
| 20260901181538 | 97 | 231 | 4.0 | 9.0 | 0.00 | 0.00 | 0.00 | 45 | 1010.2 |
| 20260901180029 | 95 | 265 | 3.0 | 9.0 | 0.00 | 0.00 | 0.00 | 47 | 1010.4 |
| 20260901174526 | 94 | 220 | 4.0 | 10.0 | 0.00 | 0.00 | 0.00 | 49 | 1010.5 |
| 20260901173025 | 94 | 272 | 2.0 | 8.0 | 0.00 | 0.00 | 0.00 | 50 | 1010.7 |
| 20260901171522 | 93 | 213 | 3.0 | 9.0 | 0.00 | 0.00 | 0.00 | 52 | 1010.8 |
| 20260901170052 | 92 | 197 | 6.0 | 12.0 | 0.00 | 0.00 | 0.00 | 51 | 1010.9 |
| 20260901164516 | 91 | 195 | 3.0 | 12.0 | 0.00 | 0.00 | 0.00 | 53 | 1011.0 |
| 20260901163025 | 90 | 256 | 2.0 | 7.0 | 0.00 | 0.00 | 0.00 | 55 | 1011.1 |
| 20260901161510 | 89 | 273 | 2.0 | 10.0 | 0.00 | 0.00 | 0.00 | 56 | 1011.2 |
| 20260901160006 | 88 | 175 | 3.0 | 8.0 | 0.00 | 0.00 | 0.00 | 57 | 1011.2 |
| 20260901154504 | 88 | 216 | 4.0 | 8.0 | 0.00 | 0.00 | 0.00 | 57 | 1011.2 |
| 20260901153003 | 87 | 125 | 3.0 | 8.0 | 0.00 | 0.00 | 0.00 | 58 | 1011.1 |
| 20260901151602 | 86 | 127 | 2.0 | 9.0 | 0.00 | 0.00 | 0.00 | 59 | 1011.2 |
| 20260901150107 | 85 | 127 | 3.0 | 7.0 | 0.00 | 0.00 | 0.00 | 60 | 1011.1 |
| 20260901144554 | 85 | 231 | 2.0 | 6.0 | 0.00 | 0.00 | 0.00 | 60 | 1011.2 |
| 20260901143053 | 84 | 154 | 1.0 | 6.0 | 0.00 | 0.00 | 0.00 | 61 | 1011.3 |
| 20260901141553 | 83 | 235 | 2.0 | 6.0 | 0.00 | 0.00 | 0.00 | 61 | 1011.4 |
| 20260901140058 | 83 | 216 | 1.0 | 4.0 | 0.00 | 0.00 | 0.00 | 62 | 1011.5 |
| 20260901134551 | 82 | 134 | 1.0 | 5.0 | 0.00 | 0.00 | 0.00 | 64 | 1011.5 |
| 20260901133102 | 81 | 110 | 2.0 | 5.0 | 0.00 | 0.00 | 0.00 | 64 | 1011.4 |
| 20260901131551 | 81 | 129 | 0.0 | 3.0 | 0.00 | 0.00 | 0.00 | 64 | 1011.5 |
| 20260901130049 | 80 | 135 | 0.0 | 4.0 | 0.00 | 0.00 | 0.00 | 65 | 1011.3 |
| 20260901124547 | 78 | 262 | 0.0 | 3.0 | 0.00 | 0.00 | 0.00 | 67 | 1011.3 |
| 20260901123046 | 78 | 227 | 1.0 | 5.0 | 0.00 | 0.00 | 0.00 | 67 | 1011.2 |
| 20260901121559 | 77 | 179 | 0.0 | 4.0 | 0.00 | 0.00 | 0.00 | 66 | 1011.1 |
| 20260901120044 | 78 | 162 | 0.0 | 4.0 | 0.00 | 0.00 | 0.00 | 66 | 1010.9 |
| 20260901114543 | 77 | 226 | 0.0 | 4.0 | 0.00 | 0.00 | 0.00 | 66 | 1010.8 |
| 20260901113053 | 78 | 228 | 0.0 | 6.0 | 0.00 | 0.00 | 0.00 | 65 | 1010.7 |
| 20260901111543 | 78 | 291 | 1.0 | 3.0 | 0.00 | 0.00 | 0.00 | 65 | 1010.6 |
| 20260901110039 | 78 | 291 | 1.0 | 4.0 | 0.00 | 0.00 | 0.00 | 65 | 1010.5 |
| 20260901104549 | 78 | 296 | 0.0 | 3.0 | 0.00 | 0.00 | 0.00 | 64 | 1010.4 |
| 20260901103036 | 79 | 310 | 0.0 | 4.0 | 0.00 | 0.00 | 0.00 | 63 | 1010.4 |
| 20260901101535 | 80 | 99 | 0.0 | 5.0 | 0.00 | 0.00 | 0.00 | 61 | 1010.4 |
| 20260901100039 | 80 | 209 | 0.0 | 3.0 | 0.00 | 0.00 | 0.00 | 62 | 1010.2 |
| 20260901094534 | 80 | 215 | 1.0 | 4.0 | 0.00 | 0.00 | 0.00 | 60 | 1009.9 |
| 20260901093033 | 81 | 227 | 1.0 | 4.0 | 0.00 | 0.00 | 0.00 | 60 | 1009.9 |
| 20260901091534 | 80 | 241 | 1.0 | 6.0 | 0.00 | 0.00 | 0.00 | 60 | 1009.8 |
| 20260901090031 | 79 | 193 | 1.0 | 5.0 | 0.00 | 0.00 | 0.00 | 62 | 1009.7 |
| 20260901084550 | 78 | 156 | 1.0 | 4.0 | 0.00 | 0.00 | 0.00 | 65 | 1009.6 |
| 20260901083033 | 77 | 155 | 0.0 | 0.0 | 0.00 | 0.00 | 0.00 | 69 | 1009.5 |
| 20260901081528 | 77 | 155 | 0.0 | 2.0 | 0.00 | 0.00 | 0.00 | 68 | 1009.4 |
| 20260901080027 | 78 | 155 | 0.0 | 1.0 | 0.00 | 0.00 | 0.00 | 66 | 1009.5 |
| 20260901074524 | 78 | 155 | 0.0 | 2.0 | 0.00 | 0.00 | 0.00 | 65 | 1009.4 |
| 20260901073020 | 79 | 155 | 0.0 | 1.0 | 0.00 | 0.00 | 0.00 | 64 | 1009.5 |
| 20260901071517 | 80 | 155 | 0.0 | 3.0 | 0.00 | 0.00 | 0.00 | 63 | 1009.7 |
| 20260901070015 | 81 | 155 | 0.0 | 4.0 | 0.00 | 0.00 | 0.00 | 61 | 1009.8 |
| 20260901064512 | 82 | 154 | 0.0 | 2.0 | 0.00 | 0.00 | 0.00 | 58 | 1009.8 |
| 20260901063008 | 83 | 154 | 0.0 | 4.0 | 0.00 | 0.00 | 0.00 | 56 | 1009.9 |
| 20260901061510 | 83 | 160 | 0.0 | 4.0 | 0.00 | 0.00 | 0.00 | 55 | 1009.9 |
| 20260901060005 | 83 | 247 | 0.0 | 5.0 | 0.00 | 0.00 | 0.00 | 55 | 1010.0 |
| 20260901054504 | 84 | 232 | 1.0 | 4.0 | 0.00 | 0.00 | 0.00 | 55 | 1010.0 |
| 20260901053002 | 84 | 234 | 1.0 | 6.0 | 0.00 | 0.00 | 0.00 | 55 | 1009.9 |
| 20260901051502 | 84 | 242 | 1.0 | 5.0 | 0.00 | 0.00 | 0.00 | 56 | 1009.8 |
| 20260901050002 | 84 | 245 | 1.0 | 4.0 | 0.00 | 0.00 | 0.00 | 56 | 1009.7 |
| 20260901044604 | 84 | 228 | 1.0 | 4.0 | 0.00 | 0.00 | 0.00 | 56 | 1009.7 |
| 20260901043100 | 84 | 187 | 1.0 | 4.0 | 0.00 | 0.00 | 0.00 | 57 | 1009.7 |
| 20260901041600 | 84 | 251 | 0.0 | 4.0 | 0.00 | 0.00 | 0.00 | 57 | 1009.4 |
| 20260901040100 | 84 | 131 | 0.0 | 3.0 | 0.00 | 0.00 | 0.00 | 59 | 1009.4 |
| 20260901034608 | 82 | 122 | 0.0 | 3.0 | 0.00 | 0.00 | 0.00 | 62 | 1009.3 |
| 20260901033112 | 80 | 122 | 0.0 | 2.0 | 0.00 | 0.00 | 0.00 | 71 | 1009.2 |